createdAt,value
2023-03-04T00:00:45.872Z,28.70
2023-03-04T00:03:15.518Z,27.83
2023-03-04T00:05:43.147Z,33.22
2023-03-04T00:08:10.396Z,29.52
2023-03-04T00:10:37.540Z,27.45
2023-03-04T00:13:04.704Z,28.55
2023-03-04T00:15:32.267Z,33.20
2023-03-04T00:17:59.436Z,34.83
2023-03-04T00:20:26.636Z,32.42
2023-03-04T00:22:54.095Z,33.40
2023-03-04T00:25:21.257Z,32.05
2023-03-04T00:27:48.475Z,33.58
2023-03-04T00:30:16.004Z,31.58
2023-03-04T00:32:43.320Z,32.42
2023-03-04T00:35:10.581Z,33.35
2023-03-04T00:37:37.806Z,32.38
2023-03-04T00:40:06.347Z,34.30
2023-03-04T00:45:01.689Z,33.38
2023-03-04T00:47:29.571Z,33.42
2023-03-04T00:49:57.097Z,36.58
2023-03-04T00:52:24.290Z,28.17
2023-03-04T00:54:51.440Z,31.20
2023-03-04T00:57:18.690Z,35.33
2023-03-04T00:59:47.101Z,35.80
2023-03-04T01:02:15.047Z,35.70
2023-03-04T01:04:42.941Z,32.33
2023-03-04T01:07:10.205Z,31.80
2023-03-04T01:09:37.429Z,30.45
2023-03-04T01:12:04.750Z,31.60
2023-03-04T01:14:32.247Z,37.55
2023-03-04T01:16:59.555Z,30.60
2023-03-04T01:19:26.901Z,34.53
2023-03-04T01:21:54.100Z,31.52
2023-03-04T01:24:22.782Z,32.72
2023-03-04T01:26:49.945Z,40.03
2023-03-04T01:29:17.309Z,31.92
2023-03-04T01:31:44.501Z,34.47
2023-03-04T01:34:13.204Z,33.47
2023-03-04T01:36:40.414Z,32.70
2023-03-04T01:39:07.549Z,38.38
2023-03-04T01:41:34.817Z,28.75
2023-03-04T01:44:02.970Z,32.97
2023-03-04T01:46:31.613Z,36.05
2023-03-04T01:48:59.309Z,33.97
2023-03-04T01:51:26.555Z,31.48
2023-03-04T01:53:54.901Z,35.42
2023-03-04T01:56:30.499Z,35.08
2023-03-04T01:59:15.935Z,31.63
2023-03-04T02:01:49.592Z,33.60
2023-03-04T02:04:20.452Z,33.35
2023-03-04T02:06:49.002Z,31.52
2023-03-04T02:11:47.401Z,32.05
2023-03-04T02:14:16.758Z,30.67
2023-03-04T02:16:44.459Z,33.92
2023-03-04T02:19:42.840Z,39.45
2023-03-04T02:22:10.362Z,36.10
2023-03-04T02:24:54.968Z,36.78
2023-03-04T02:27:22.464Z,36.67
2023-03-04T02:29:50.264Z,36.45
2023-03-04T02:32:17.827Z,34.20
2023-03-04T02:34:50.861Z,32.28
2023-03-04T02:37:20.173Z,30.30
2023-03-04T02:39:49.867Z,31.98
2023-03-04T02:42:18.692Z,34.30
2023-03-04T02:44:49.300Z,33.08
2023-03-04T02:47:19.570Z,32.58
2023-03-04T02:49:48.463Z,28.80
2023-03-04T02:52:23.064Z,33.50
2023-03-04T02:54:50.535Z,32.25
2023-03-04T02:57:18.436Z,32.72
2023-03-04T02:59:49.430Z,35.25
2023-03-04T03:02:20.964Z,32.83
2023-03-04T03:04:48.361Z,37.55
2023-03-04T03:07:18.586Z,29.88
2023-03-04T03:09:45.748Z,34.38
2023-03-04T03:12:13.872Z,39.13
2023-03-04T03:14:41.327Z,36.25
2023-03-04T03:17:11.237Z,32.70
2023-03-04T03:19:38.428Z,34.25
2023-03-04T03:22:07.730Z,32.35
2023-03-04T03:24:35.057Z,33.60
2023-03-04T03:27:02.836Z,34.78
2023-03-04T03:29:30.542Z,31.80
2023-03-04T03:31:57.911Z,35.15
2023-03-04T03:34:25.243Z,33.55
2023-03-04T03:36:52.543Z,36.10
2023-03-04T03:39:20.034Z,34.13
2023-03-04T03:41:47.210Z,29.98
2023-03-04T03:44:15.625Z,30.65
2023-03-04T03:46:42.763Z,27.08
2023-03-04T03:49:09.916Z,32.80
2023-03-04T03:51:37.250Z,34.05
2023-03-04T03:54:04.565Z,29.25
2023-03-04T03:56:31.911Z,35.22
2023-03-04T03:59:00.344Z,36.70
2023-03-04T04:01:27.562Z,31.55
2023-03-04T04:03:54.871Z,32.85
2023-03-04T04:06:22.018Z,34.47
2023-03-04T04:08:49.166Z,32.65
2023-03-04T04:11:16.494Z,34.65
2023-03-04T04:13:43.631Z,32.78
2023-03-04T04:16:11.743Z,31.20
2023-03-04T04:18:39.153Z,34.30
2023-03-04T04:21:06.791Z,34.00
2023-03-04T04:23:34.002Z,33.88
2023-03-04T04:26:01.272Z,32.30
2023-03-04T04:28:28.465Z,34.47
2023-03-04T04:30:55.693Z,31.00
2023-03-04T04:33:22.869Z,32.97
2023-03-04T04:35:50.034Z,39.50
2023-03-04T04:38:17.521Z,33.35
2023-03-04T04:40:44.965Z,33.28
2023-03-04T04:43:12.167Z,38.55
2023-03-04T04:45:39.334Z,35.40
2023-03-04T04:48:06.795Z,32.10
2023-03-04T04:50:33.940Z,38.92
2023-03-04T04:53:01.154Z,32.17
2023-03-04T04:55:28.369Z,31.27
2023-03-04T04:57:55.671Z,30.92
2023-03-04T05:00:22.881Z,31.90
2023-03-04T05:02:50.285Z,35.30
2023-03-04T05:05:17.985Z,33.92
2023-03-04T05:07:45.136Z,30.77
2023-03-04T05:10:12.290Z,30.10
2023-03-04T05:12:39.482Z,33.55
2023-03-04T05:15:07.551Z,28.33
2023-03-04T05:17:34.664Z,29.98
2023-03-04T05:20:02.202Z,33.33
2023-03-04T05:22:29.365Z,37.72
2023-03-04T05:24:57.205Z,31.33
2023-03-04T05:27:24.384Z,31.30
2023-03-04T05:29:51.785Z,34.17
2023-03-04T05:32:18.973Z,30.75
2023-03-04T05:34:46.127Z,30.30
2023-03-04T05:37:13.267Z,28.88
2023-03-04T05:39:40.414Z,32.47
2023-03-04T05:42:07.789Z,29.30
2023-03-04T05:44:34.916Z,31.17
2023-03-04T05:47:02.052Z,36.08
2023-03-04T05:49:31.100Z,29.63
2023-03-04T05:51:58.266Z,33.28
2023-03-04T05:54:25.420Z,35.85
2023-03-04T05:56:52.701Z,29.20
2023-03-04T05:59:20.868Z,28.98
2023-03-04T06:01:48.645Z,28.17
2023-03-04T06:04:16.305Z,28.55
2023-03-04T06:06:43.474Z,29.98
2023-03-04T06:09:10.739Z,35.70
2023-03-04T06:11:37.984Z,31.35
2023-03-04T06:14:05.693Z,29.70
2023-03-04T06:16:33.434Z,34.33
2023-03-04T06:19:00.582Z,26.65
2023-03-04T06:21:27.797Z,35.53
2023-03-04T06:23:55.184Z,33.30
2023-03-04T06:26:22.426Z,35.72
2023-03-04T06:28:49.921Z,33.78
2023-03-04T06:31:17.399Z,30.65
2023-03-04T06:33:46.137Z,33.60
2023-03-04T06:36:13.301Z,30.27
2023-03-04T06:38:40.508Z,34.15
2023-03-04T06:41:11.599Z,35.75
2023-03-04T06:43:39.434Z,30.08
2023-03-04T06:46:08.497Z,35.38
2023-03-04T06:48:35.918Z,30.75
2023-03-04T06:51:11.577Z,30.30
2023-03-04T06:53:40.675Z,34.45
2023-03-04T06:56:10.993Z,28.57
2023-03-04T06:58:38.546Z,36.70
2023-03-04T07:01:21.533Z,34.05
2023-03-04T07:03:51.153Z,31.73
2023-03-04T07:06:24.389Z,30.20
2023-03-04T07:08:52.576Z,34.10
2023-03-04T07:11:22.031Z,35.28
2023-03-04T07:13:50.287Z,34.35
2023-03-04T07:16:22.506Z,31.05
2023-03-04T07:18:50.333Z,33.65
2023-03-04T07:21:18.727Z,36.55
2023-03-04T07:23:47.171Z,34.03
2023-03-04T07:26:14.550Z,30.30
2023-03-04T07:28:42.787Z,35.70
2023-03-04T07:31:24.878Z,34.25
2023-03-04T07:33:52.443Z,32.05
2023-03-04T07:36:20.011Z,35.45
2023-03-04T07:38:50.811Z,38.40
2023-03-04T07:41:18.871Z,39.00
2023-03-04T07:43:46.209Z,30.27
2023-03-04T07:46:14.013Z,32.58
2023-03-04T07:48:41.414Z,29.13
2023-03-04T07:51:15.216Z,33.47
2023-03-04T07:53:50.482Z,35.00
2023-03-04T07:56:26.369Z,36.50
2023-03-04T07:58:53.762Z,32.28
2023-03-04T08:01:27.157Z,38.47
2023-03-04T08:03:54.776Z,35.28
2023-03-04T08:06:23.300Z,38.20
2023-03-04T08:09:00.857Z,36.17
2023-03-04T08:11:30.485Z,31.33
2023-03-04T08:13:58.199Z,29.90
2023-03-04T08:16:26.319Z,35.10
2023-03-04T08:18:58.090Z,36.03
2023-03-04T08:21:28.364Z,31.52
2023-03-04T08:23:59.845Z,35.75
2023-03-04T08:26:42.745Z,32.70
2023-03-04T08:29:16.085Z,37.03
2023-03-04T08:31:48.701Z,35.47
2023-03-04T08:34:17.502Z,33.00
2023-03-04T08:36:44.759Z,33.35
2023-03-04T08:39:15.560Z,32.97
2023-03-04T08:41:43.788Z,29.05
2023-03-04T08:44:11.455Z,33.75
2023-03-04T08:46:41.871Z,35.45
2023-03-04T08:49:14.506Z,34.08
2023-03-04T08:51:42.854Z,29.67
2023-03-04T08:54:10.046Z,36.30
2023-03-04T08:56:37.224Z,32.30
2023-03-04T08:59:04.602Z,31.73
2023-03-04T09:01:31.835Z,32.80
2023-03-04T09:03:59.065Z,37.03
2023-03-04T09:06:26.324Z,37.35
2023-03-04T09:08:53.547Z,34.00
2023-03-04T09:11:20.836Z,33.25
2023-03-04T09:13:48.226Z,34.60
2023-03-04T09:16:15.790Z,34.33
2023-03-04T09:18:43.923Z,34.00
2023-03-04T09:21:11.902Z,33.97
2023-03-04T09:23:39.572Z,35.85
2023-03-04T09:26:24.661Z,31.08
2023-03-04T09:29:00.912Z,33.97
2023-03-04T09:31:29.323Z,34.10
2023-03-04T09:33:59.419Z,31.55
2023-03-04T09:36:27.284Z,37.95
2023-03-04T09:38:55.274Z,32.78
2023-03-04T09:41:39.473Z,33.13
2023-03-04T09:44:21.453Z,38.05
2023-03-04T09:46:50.752Z,37.22
2023-03-04T09:49:21.010Z,36.05
2023-03-04T09:52:40.622Z,38.53
2023-03-04T09:55:39.321Z,36.20
2023-03-04T09:58:31.255Z,40.03
2023-03-04T10:01:05.506Z,35.25
2023-03-04T10:04:03.394Z,38.70
2023-03-04T10:06:31.913Z,36.03
2023-03-04T10:09:25.601Z,35.20
2023-03-04T10:12:10.154Z,35.83
2023-03-04T10:14:51.314Z,42.38
2023-03-04T10:17:38.059Z,40.15
2023-03-04T10:20:26.956Z,34.58
2023-03-04T10:23:09.824Z,41.40
2023-03-04T10:25:44.591Z,38.72
2023-03-04T10:28:28.029Z,41.63
2023-03-04T10:31:39.574Z,41.92
2023-03-04T10:34:08.928Z,36.25
2023-03-04T10:37:02.370Z,36.42
2023-03-04T10:39:45.977Z,38.15
2023-03-04T10:42:16.277Z,37.45
2023-03-04T10:45:00.507Z,38.22
2023-03-04T10:47:32.695Z,44.53
2023-03-04T10:50:05.342Z,37.95
2023-03-04T10:52:51.303Z,44.40
2023-03-04T10:55:44.197Z,29.20
2023-03-04T11:01:05.526Z,39.28
2023-03-04T11:03:47.947Z,41.33
2023-03-04T11:06:22.858Z,39.00
2023-03-04T11:08:59.730Z,34.03
2023-03-04T11:11:44.752Z,42.92
2023-03-04T11:14:28.786Z,36.70
2023-03-04T11:17:03.897Z,33.97
2023-03-04T11:19:41.757Z,34.25
2023-03-04T11:22:15.115Z,32.05
2023-03-04T11:24:43.924Z,37.72
2023-03-04T11:27:49.608Z,38.15
2023-03-04T11:30:41.869Z,35.10
2023-03-04T11:33:28.376Z,36.25
2023-03-04T11:36:22.373Z,35.20
2023-03-04T11:38:51.714Z,36.88
2023-03-04T11:41:45.795Z,35.13
2023-03-04T11:44:14.447Z,31.80
2023-03-04T11:47:27.920Z,37.92
2023-03-04T11:50:29.157Z,41.78
2023-03-04T11:53:17.532Z,40.42
2023-03-04T11:56:16.903Z,36.20
2023-03-04T11:59:24.560Z,36.72
2023-03-04T12:02:20.464Z,32.83
2023-03-04T12:05:30.516Z,39.50
2023-03-04T12:08:15.404Z,34.63
2023-03-04T12:11:04.231Z,37.92
2023-03-04T12:13:52.276Z,38.25
2023-03-04T12:17:02.414Z,33.38
2023-03-04T12:20:15.196Z,29.02
2023-03-04T12:22:51.649Z,40.30
2023-03-04T12:26:03.402Z,38.75
2023-03-04T12:28:55.090Z,36.97
2023-03-04T12:31:41.243Z,35.83
2023-03-04T12:34:52.666Z,37.90
2023-03-04T12:37:38.821Z,27.67
2023-03-04T12:40:37.106Z,31.38
2023-03-04T12:44:00.221Z,36.10
2023-03-04T12:46:55.877Z,33.17
2023-03-04T12:49:38.053Z,32.22
2023-03-04T12:52:30.198Z,33.70
2023-03-04T12:55:02.981Z,37.00
2023-03-04T12:57:31.776Z,34.33
2023-03-04T13:00:44.332Z,34.63
2023-03-04T13:04:24.127Z,33.78
2023-03-04T13:07:27.244Z,33.17
2023-03-04T13:10:14.477Z,33.72
2023-03-04T13:12:57.414Z,35.42
2023-03-04T13:15:24.661Z,32.38
2023-03-04T13:18:34.911Z,28.30
2023-03-04T13:21:14.152Z,30.70
2023-03-04T13:23:42.400Z,43.88
2023-03-04T13:26:34.563Z,33.50
2023-03-04T13:29:13.921Z,31.02
2023-03-04T13:32:11.222Z,31.83
2023-03-04T13:34:52.858Z,28.02
2023-03-04T13:37:35.831Z,30.25
2023-03-04T13:40:23.797Z,28.92
2023-03-04T13:42:51.402Z,29.38
2023-03-04T13:45:44.903Z,30.70
2023-03-04T13:48:33.179Z,29.80
2023-03-04T13:51:00.847Z,30.00
2023-03-04T13:53:58.963Z,27.60
2023-03-04T13:56:46.310Z,29.65
2023-03-04T13:59:41.925Z,29.40
2023-03-04T14:02:19.994Z,28.83
2023-03-04T14:05:00.431Z,26.52
2023-03-04T14:07:37.062Z,30.58
2023-03-04T14:10:13.187Z,25.77
2023-03-04T14:12:59.140Z,29.17
2023-03-04T14:15:31.911Z,28.25
2023-03-04T14:18:03.561Z,27.70
2023-03-04T14:20:39.389Z,28.67
2023-03-04T14:23:31.272Z,26.55
2023-03-04T14:26:17.620Z,26.63
2023-03-04T14:28:52.537Z,28.60
2023-03-04T14:31:29.923Z,27.48
2023-03-04T14:34:02.275Z,26.65
2023-03-04T14:36:34.049Z,29.45
2023-03-04T14:39:06.806Z,26.92
2023-03-04T14:41:45.747Z,27.45
2023-03-04T14:44:49.108Z,27.90
2023-03-04T14:47:32.793Z,27.20
2023-03-04T14:50:00.233Z,25.73
2023-03-04T14:52:41.647Z,25.73
2023-03-04T14:55:14.997Z,26.35
2023-03-04T14:57:47.336Z,25.13
2023-03-04T15:00:21.525Z,27.50
2023-03-04T15:02:59.796Z,26.00
2023-03-04T15:05:34.748Z,24.98
2023-03-04T15:08:15.608Z,27.90
2023-03-04T15:10:42.948Z,28.80
2023-03-04T15:13:10.638Z,23.92
2023-03-04T15:15:47.001Z,25.80
2023-03-04T15:18:29.915Z,25.38
2023-03-04T15:21:20.364Z,27.60
2023-03-04T15:23:47.844Z,24.63
2023-03-04T15:26:15.175Z,23.75
2023-03-04T15:28:43.225Z,26.95
2023-03-04T15:31:23.146Z,24.70
2023-03-04T15:33:50.615Z,22.98
2023-03-04T15:36:22.834Z,24.45
2023-03-04T15:38:53.323Z,28.58
2023-03-04T15:41:26.862Z,24.50
2023-03-04T15:43:57.617Z,26.05
2023-03-04T15:46:24.844Z,24.30
2023-03-04T15:48:52.182Z,23.98
2023-03-04T15:51:24.607Z,27.00
2023-03-04T15:53:55.965Z,25.95
2023-03-04T15:56:30.201Z,26.17
2023-03-04T16:01:38.366Z,23.67
2023-03-04T16:04:05.804Z,27.15
2023-03-04T16:06:33.566Z,24.55
2023-03-04T16:09:01.345Z,23.98
2023-03-04T16:11:32.807Z,21.95
2023-03-04T16:13:59.936Z,24.48
2023-03-04T16:16:27.130Z,24.60
2023-03-04T16:18:54.334Z,24.85
2023-03-04T16:21:24.792Z,24.43
2023-03-04T16:23:54.551Z,25.85
2023-03-04T16:26:30.243Z,24.92
2023-03-04T16:28:57.402Z,22.75
2023-03-04T16:31:24.573Z,24.58
2023-03-04T16:33:51.800Z,22.08
2023-03-04T16:36:27.214Z,24.80
2023-03-04T16:39:03.947Z,21.20
2023-03-04T16:41:31.237Z,24.25
2023-03-04T16:44:01.991Z,24.40
2023-03-04T16:46:30.147Z,27.40
2023-03-04T16:48:57.418Z,26.95
2023-03-04T16:51:24.854Z,24.50
2023-03-04T16:54:02.516Z,25.50
2023-03-04T16:56:29.682Z,25.88
2023-03-04T16:58:56.802Z,27.08
2023-03-04T17:01:29.058Z,24.38
2023-03-04T17:03:56.837Z,26.75
2023-03-04T17:06:24.905Z,27.45
2023-03-04T17:08:52.749Z,24.05
2023-03-04T17:11:23.380Z,27.00
2023-03-04T17:13:51.637Z,24.80
2023-03-04T17:18:46.669Z,28.40
2023-03-04T17:21:19.641Z,26.27
2023-03-04T17:23:47.278Z,24.00
2023-03-04T17:26:16.585Z,27.92
2023-03-04T17:28:43.832Z,26.50
2023-03-04T17:31:18.812Z,28.77
2023-03-04T17:33:47.316Z,27.85
2023-03-04T17:36:17.022Z,25.75
2023-03-04T17:38:44.558Z,29.58
2023-03-04T17:41:17.480Z,27.48
2023-03-04T17:43:54.642Z,24.45
2023-03-04T17:46:26.580Z,34.70
2023-03-04T17:48:59.010Z,27.42
2023-03-04T17:51:38.998Z,23.67
2023-03-04T17:54:08.681Z,26.40
2023-03-04T17:56:39.297Z,31.90
2023-03-04T17:59:15.628Z,28.15
2023-03-04T18:01:45.196Z,31.10
2023-03-04T18:04:14.385Z,28.25
2023-03-04T18:06:42.114Z,28.08
2023-03-04T18:09:10.077Z,29.73
2023-03-04T18:11:41.442Z,30.45
2023-03-04T18:14:09.334Z,29.10
2023-03-04T18:16:36.616Z,37.03
2023-03-04T18:19:04.647Z,45.58
2023-03-04T18:21:32.641Z,38.80
2023-03-04T18:23:59.777Z,35.03
2023-03-04T18:26:28.084Z,37.25
2023-03-04T18:28:56.701Z,37.08
2023-03-04T18:31:31.567Z,34.30
2023-03-04T18:34:03.775Z,35.00
2023-03-04T18:36:31.127Z,37.58
2023-03-04T18:38:59.429Z,32.97
2023-03-04T18:43:55.715Z,34.50
2023-03-04T18:46:53.882Z,28.08
2023-03-04T18:49:21.652Z,32.10
2023-03-04T18:51:49.153Z,32.33
2023-03-04T18:54:16.479Z,31.40
2023-03-04T18:56:57.243Z,34.38
2023-03-04T19:02:20.837Z,32.70
2023-03-04T19:04:49.981Z,33.00
2023-03-04T19:07:17.194Z,34.50
2023-03-04T19:09:44.437Z,34.33
2023-03-04T19:12:12.200Z,34.60
2023-03-04T19:14:39.356Z,38.72
2023-03-04T19:17:07.687Z,33.50
2023-03-04T19:19:36.360Z,36.63
2023-03-04T19:22:04.161Z,35.75
2023-03-04T19:24:31.365Z,36.33
2023-03-04T19:26:58.524Z,36.38
2023-03-04T19:29:25.807Z,34.35
2023-03-04T19:31:53.049Z,34.83
2023-03-04T19:34:20.218Z,38.55
2023-03-04T19:36:47.536Z,31.60
2023-03-04T19:39:15.662Z,35.58
2023-03-04T19:41:42.937Z,30.27
2023-03-04T19:44:10.412Z,36.67
2023-03-04T19:46:37.558Z,32.53
2023-03-04T19:49:05.757Z,30.38
2023-03-04T19:51:33.029Z,40.88
2023-03-04T19:54:00.739Z,39.65
2023-03-04T19:56:28.396Z,38.40
2023-03-04T19:58:57.658Z,39.80
2023-03-04T20:01:32.774Z,40.72
2023-03-04T20:04:14.507Z,35.45
2023-03-04T20:06:49.510Z,34.85
2023-03-04T20:09:19.388Z,43.85
2023-03-04T20:11:57.579Z,35.05
2023-03-04T20:14:28.427Z,35.08
2023-03-04T20:17:03.079Z,34.55
2023-03-04T20:21:58.801Z,35.25
2023-03-04T20:24:26.618Z,31.17
2023-03-04T20:26:53.867Z,32.95
2023-03-04T20:29:21.239Z,29.40
2023-03-04T20:31:49.071Z,37.15
2023-03-04T20:34:16.487Z,36.20
2023-03-04T20:36:43.641Z,29.63
2023-03-04T20:39:26.987Z,37.78
2023-03-04T20:41:58.020Z,34.90
2023-03-04T20:44:25.432Z,35.47
2023-03-04T20:46:52.852Z,36.83
2023-03-04T20:49:27.356Z,36.97
2023-03-04T20:52:02.928Z,35.50
2023-03-04T20:54:31.008Z,40.30
2023-03-04T20:56:58.495Z,40.88
2023-03-04T20:59:25.952Z,40.50
2023-03-04T21:01:53.649Z,41.75
2023-03-04T21:04:21.237Z,36.47
2023-03-04T21:06:50.656Z,36.20
2023-03-04T21:09:22.073Z,39.40
2023-03-04T21:11:51.391Z,35.60
2023-03-04T21:14:29.104Z,37.83
2023-03-04T21:17:02.295Z,37.25
2023-03-04T21:19:34.275Z,38.42
2023-03-04T21:22:03.454Z,38.38
2023-03-04T21:24:35.730Z,42.50
2023-03-04T21:27:04.568Z,38.95
2023-03-04T21:29:31.921Z,47.85
2023-03-04T21:32:22.371Z,46.28
2023-03-04T21:34:52.027Z,39.97
2023-03-04T21:37:22.082Z,38.92
2023-03-04T21:39:49.434Z,42.90
2023-03-04T21:42:16.788Z,39.33
2023-03-04T21:44:51.965Z,42.65
2023-03-04T21:47:50.480Z,42.97
2023-03-04T21:50:17.923Z,40.28
2023-03-04T21:52:45.092Z,48.00
2023-03-04T21:55:12.604Z,40.97
2023-03-04T21:57:39.730Z,38.08
2023-03-04T22:00:08.301Z,35.40
2023-03-04T22:02:41.127Z,36.47
2023-03-04T22:05:08.614Z,38.90
2023-03-04T22:07:36.055Z,43.15
2023-03-04T22:10:06.591Z,36.95
2023-03-04T22:12:33.804Z,41.83
2023-03-04T22:15:01.012Z,37.75
2023-03-04T22:17:28.510Z,37.42
2023-03-04T22:19:55.822Z,43.38
2023-03-04T22:22:22.941Z,40.13
2023-03-04T22:24:51.721Z,41.22
2023-03-04T22:27:20.111Z,38.60
2023-03-04T22:29:47.389Z,42.95
2023-03-04T22:32:16.948Z,39.47
2023-03-04T22:34:44.123Z,43.28
2023-03-04T22:37:11.242Z,44.33
2023-03-04T22:39:38.385Z,43.60
2023-03-04T22:42:05.933Z,45.60
2023-03-04T22:44:34.377Z,45.15
2023-03-04T22:47:01.492Z,45.65
2023-03-04T22:49:28.724Z,45.20
2023-03-04T22:51:55.898Z,38.42
2023-03-04T22:54:23.030Z,47.28
2023-03-04T22:56:50.283Z,43.50
2023-03-04T22:59:17.544Z,45.22
2023-03-04T23:01:44.761Z,42.13
2023-03-04T23:04:11.898Z,48.22
2023-03-04T23:06:39.276Z,48.92
2023-03-04T23:09:06.725Z,43.40
2023-03-04T23:11:35.737Z,41.47
2023-03-04T23:14:06.876Z,38.55
2023-03-04T23:16:38.569Z,39.13
2023-03-04T23:19:06.813Z,41.42
2023-03-04T23:21:35.136Z,42.80
2023-03-04T23:24:04.403Z,42.45
2023-03-04T23:26:38.711Z,48.58
2023-03-04T23:29:09.889Z,45.65
2023-03-04T23:31:37.416Z,42.17
2023-03-04T23:34:06.873Z,44.90
2023-03-04T23:36:37.363Z,46.20
2023-03-04T23:39:07.487Z,44.22
2023-03-04T23:41:35.686Z,42.28
2023-03-04T23:44:04.473Z,47.30
2023-03-04T23:46:32.503Z,51.90
2023-03-04T23:49:00.050Z,52.55
2023-03-04T23:51:29.984Z,51.38
2023-03-04T23:53:58.357Z,52.38
2023-03-04T23:56:29.831Z,51.00
2023-03-04T23:58:59.201Z,49.08
